sensor_id;sensor_type;location;lat;lon;timestamp;P1;durP1;ratioP1;P2;durP2;ratioP2
13985;SDS011;7067;51.832;8.296;2022-10-31T00:01:22;23.92;;;14.88;;
13985;SDS011;7067;51.832;8.296;2022-10-31T00:03:49;20.52;;;13.73;;
13985;SDS011;7067;51.832;8.296;2022-10-31T00:06:15;23.00;;;14.77;;
13985;SDS011;7067;51.832;8.296;2022-10-31T00:08:43;22.73;;;14.82;;
13985;SDS011;7067;51.832;8.296;2022-10-31T00:11:09;27.35;;;16.27;;
13985;SDS011;7067;51.832;8.296;2022-10-31T00:13:35;26.20;;;14.65;;
13985;SDS011;7067;51.832;8.296;2022-10-31T00:16:00;24.58;;;15.63;;
13985;SDS011;7067;51.832;8.296;2022-10-31T00:18:26;21.92;;;13.02;;
13985;SDS011;7067;51.832;8.296;2022-10-31T00:21:00;18.23;;;14.43;;
13985;SDS011;7067;51.832;8.296;2022-10-31T00:23:26;23.75;;;15.27;;
13985;SDS011;7067;51.832;8.296;2022-10-31T00:25:52;22.83;;;15.07;;
13985;SDS011;7067;51.832;8.296;2022-10-31T00:28:17;24.80;;;15.68;;
13985;SDS011;7067;51.832;8.296;2022-10-31T00:30:42;26.30;;;14.50;;
13985;SDS011;7067;51.832;8.296;2022-10-31T00:33:08;25.75;;;14.25;;
13985;SDS011;7067;51.832;8.296;2022-10-31T00:35:33;26.23;;;15.30;;
13985;SDS011;7067;51.832;8.296;2022-10-31T00:37:58;25.05;;;15.35;;
13985;SDS011;7067;51.832;8.296;2022-10-31T00:40:24;23.33;;;15.82;;
13985;SDS011;7067;51.832;8.296;2022-10-31T00:42:49;25.27;;;15.90;;
13985;SDS011;7067;51.832;8.296;2022-10-31T00:45:14;22.05;;;15.77;;
13985;SDS011;7067;51.832;8.296;2022-10-31T00:47:40;26.48;;;17.55;;
13985;SDS011;7067;51.832;8.296;2022-10-31T00:50:05;29.52;;;17.88;;
13985;SDS011;7067;51.832;8.296;2022-10-31T00:52:32;26.35;;;17.00;;
13985;SDS011;7067;51.832;8.296;2022-10-31T00:54:57;24.75;;;17.38;;
13985;SDS011;7067;51.832;8.296;2022-10-31T00:57:22;22.35;;;16.65;;
13985;SDS011;7067;51.832;8.296;2022-10-31T00:59:48;23.48;;;16.38;;
13985;SDS011;7067;51.832;8.296;2022-10-31T01:02:13;25.05;;;16.42;;
13985;SDS011;7067;51.832;8.296;2022-10-31T01:04:38;28.40;;;17.23;;
13985;SDS011;7067;51.832;8.296;2022-10-31T01:07:04;28.85;;;17.17;;
13985;SDS011;7067;51.832;8.296;2022-10-31T01:09:29;31.20;;;16.92;;
13985;SDS011;7067;51.832;8.296;2022-10-31T01:11:54;31.33;;;17.92;;
13985;SDS011;7067;51.832;8.296;2022-10-31T01:14:20;33.80;;;16.88;;
13985;SDS011;7067;51.832;8.296;2022-10-31T01:19:20;24.60;;;16.15;;
13985;SDS011;7067;51.832;8.296;2022-10-31T01:21:45;24.90;;;15.82;;
13985;SDS011;7067;51.832;8.296;2022-10-31T01:24:11;27.95;;;17.85;;
13985;SDS011;7067;51.832;8.296;2022-10-31T01:26:36;29.75;;;16.17;;
13985;SDS011;7067;51.832;8.296;2022-10-31T01:29:05;26.27;;;16.38;;
13985;SDS011;7067;51.832;8.296;2022-10-31T01:31:36;26.88;;;18.15;;
13985;SDS011;7067;51.832;8.296;2022-10-31T01:34:03;30.25;;;19.17;;
13985;SDS011;7067;51.832;8.296;2022-10-31T01:36:29;27.08;;;16.40;;
13985;SDS011;7067;51.832;8.296;2022-10-31T01:38:57;25.45;;;16.60;;
13985;SDS011;7067;51.832;8.296;2022-10-31T01:41:27;24.45;;;18.02;;
13985;SDS011;7067;51.832;8.296;2022-10-31T01:44:01;30.15;;;17.83;;
13985;SDS011;7067;51.832;8.296;2022-10-31T01:46:38;30.52;;;17.35;;
13985;SDS011;7067;51.832;8.296;2022-10-31T01:49:05;23.45;;;16.15;;
13985;SDS011;7067;51.832;8.296;2022-10-31T01:51:35;27.05;;;17.60;;
13985;SDS011;7067;51.832;8.296;2022-10-31T01:54:06;25.27;;;17.10;;
13985;SDS011;7067;51.832;8.296;2022-10-31T01:56:33;26.65;;;17.60;;
13985;SDS011;7067;51.832;8.296;2022-10-31T01:59:01;25.02;;;17.65;;
13985;SDS011;7067;51.832;8.296;2022-10-31T02:01:30;24.20;;;16.60;;
13985;SDS011;7067;51.832;8.296;2022-10-31T02:03:55;26.00;;;18.70;;
13985;SDS011;7067;51.832;8.296;2022-10-31T02:06:24;27.17;;;16.95;;
13985;SDS011;7067;51.832;8.296;2022-10-31T02:09:04;25.05;;;18.20;;
13985;SDS011;7067;51.832;8.296;2022-10-31T02:11:30;28.75;;;18.15;;
13985;SDS011;7067;51.832;8.296;2022-10-31T02:13:56;25.85;;;18.25;;
13985;SDS011;7067;51.832;8.296;2022-10-31T02:16:21;30.40;;;17.48;;
13985;SDS011;7067;51.832;8.296;2022-10-31T02:18:46;28.92;;;18.73;;
13985;SDS011;7067;51.832;8.296;2022-10-31T02:21:16;27.25;;;18.35;;
13985;SDS011;7067;51.832;8.296;2022-10-31T02:34:55;22.40;;;16.65;;
13985;SDS011;7067;51.832;8.296;2022-10-31T02:37:24;27.13;;;17.08;;
13985;SDS011;7067;51.832;8.296;2022-10-31T02:47:46;25.02;;;17.27;;
13985;SDS011;7067;51.832;8.296;2022-10-31T02:50:17;27.27;;;15.68;;
13985;SDS011;7067;51.832;8.296;2022-10-31T02:52:49;27.35;;;17.55;;
13985;SDS011;7067;51.832;8.296;2022-10-31T02:57:49;28.42;;;16.77;;
13985;SDS011;7067;51.832;8.296;2022-10-31T03:00:18;19.67;;;16.23;;
13985;SDS011;7067;51.832;8.296;2022-10-31T03:02:52;26.10;;;15.27;;
13985;SDS011;7067;51.832;8.296;2022-10-31T03:10:35;26.63;;;18.23;;
13985;SDS011;7067;51.832;8.296;2022-10-31T03:15:50;23.00;;;17.17;;
13985;SDS011;7067;51.832;8.296;2022-10-31T03:18:23;24.42;;;17.70;;
13985;SDS011;7067;51.832;8.296;2022-10-31T03:20:54;27.20;;;18.60;;
13985;SDS011;7067;51.832;8.296;2022-10-31T03:23:23;27.83;;;18.10;;
13985;SDS011;7067;51.832;8.296;2022-10-31T03:25:50;27.85;;;18.20;;
13985;SDS011;7067;51.832;8.296;2022-10-31T03:28:17;27.60;;;18.55;;
13985;SDS011;7067;51.832;8.296;2022-10-31T03:30:45;23.58;;;17.63;;
13985;SDS011;7067;51.832;8.296;2022-10-31T03:33:16;29.17;;;18.35;;
13985;SDS011;7067;51.832;8.296;2022-10-31T03:35:44;24.95;;;17.92;;
13985;SDS011;7067;51.832;8.296;2022-10-31T03:38:11;25.52;;;17.08;;
13985;SDS011;7067;51.832;8.296;2022-10-31T03:40:37;21.95;;;17.02;;
13985;SDS011;7067;51.832;8.296;2022-10-31T03:43:05;34.30;;;18.40;;
13985;SDS011;7067;51.832;8.296;2022-10-31T03:45:35;27.15;;;17.60;;
13985;SDS011;7067;51.832;8.296;2022-10-31T03:48:04;30.33;;;18.08;;
13985;SDS011;7067;51.832;8.296;2022-10-31T03:50:32;31.13;;;17.88;;
13985;SDS011;7067;51.832;8.296;2022-10-31T03:53:09;24.05;;;17.20;;
13985;SDS011;7067;51.832;8.296;2022-10-31T04:01:04;26.77;;;16.27;;
13985;SDS011;7067;51.832;8.296;2022-10-31T04:03:32;22.58;;;17.13;;
13985;SDS011;7067;51.832;8.296;2022-10-31T04:05:59;24.13;;;18.50;;
13985;SDS011;7067;51.832;8.296;2022-10-31T04:08:28;28.50;;;18.00;;
13985;SDS011;7067;51.832;8.296;2022-10-31T04:10:56;22.83;;;17.40;;
13985;SDS011;7067;51.832;8.296;2022-10-31T04:13:24;25.27;;;17.35;;
13985;SDS011;7067;51.832;8.296;2022-10-31T04:18:18;28.45;;;17.10;;
13985;SDS011;7067;51.832;8.296;2022-10-31T04:20:43;34.65;;;18.42;;
13985;SDS011;7067;51.832;8.296;2022-10-31T04:23:29;27.83;;;18.90;;
13985;SDS011;7067;51.832;8.296;2022-10-31T04:25:54;24.67;;;16.85;;
13985;SDS011;7067;51.832;8.296;2022-10-31T04:28:19;22.92;;;17.42;;
13985;SDS011;7067;51.832;8.296;2022-10-31T04:30:45;27.98;;;17.58;;
13985;SDS011;7067;51.832;8.296;2022-10-31T04:33:10;21.23;;;16.80;;
13985;SDS011;7067;51.832;8.296;2022-10-31T04:35:35;24.27;;;17.38;;
13985;SDS011;7067;51.832;8.296;2022-10-31T04:38:01;25.42;;;17.27;;
13985;SDS011;7067;51.832;8.296;2022-10-31T04:40:26;25.88;;;16.83;;
13985;SDS011;7067;51.832;8.296;2022-10-31T04:42:51;26.52;;;17.60;;
13985;SDS011;7067;51.832;8.296;2022-10-31T04:45:17;24.35;;;16.08;;
13985;SDS011;7067;51.832;8.296;2022-10-31T04:47:42;28.63;;;15.60;;
13985;SDS011;7067;51.832;8.296;2022-10-31T04:50:07;22.67;;;15.63;;
13985;SDS011;7067;51.832;8.296;2022-10-31T04:52:38;27.02;;;17.08;;
13985;SDS011;7067;51.832;8.296;2022-10-31T04:55:04;27.20;;;16.27;;
13985;SDS011;7067;51.832;8.296;2022-10-31T04:57:29;24.70;;;15.38;;
13985;SDS011;7067;51.832;8.296;2022-10-31T04:59:55;20.08;;;14.73;;
13985;SDS011;7067;51.832;8.296;2022-10-31T05:02:20;21.83;;;15.70;;
13985;SDS011;7067;51.832;8.296;2022-10-31T05:04:45;21.10;;;15.60;;
13985;SDS011;7067;51.832;8.296;2022-10-31T05:07:11;22.30;;;14.82;;
13985;SDS011;7067;51.832;8.296;2022-10-31T05:09:36;17.55;;;15.00;;
13985;SDS011;7067;51.832;8.296;2022-10-31T05:12:01;23.02;;;14.18;;
13985;SDS011;7067;51.832;8.296;2022-10-31T05:14:26;28.50;;;16.27;;
13985;SDS011;7067;51.832;8.296;2022-10-31T05:16:52;17.88;;;14.18;;
13985;SDS011;7067;51.832;8.296;2022-10-31T05:19:17;19.38;;;14.77;;
13985;SDS011;7067;51.832;8.296;2022-10-31T05:21:42;17.05;;;15.32;;
13985;SDS011;7067;51.832;8.296;2022-10-31T05:24:08;18.27;;;14.80;;
13985;SDS011;7067;51.832;8.296;2022-10-31T05:26:33;19.30;;;14.90;;
13985;SDS011;7067;51.832;8.296;2022-10-31T05:28:59;23.75;;;14.85;;
13985;SDS011;7067;51.832;8.296;2022-10-31T05:31:24;17.42;;;14.27;;
13985;SDS011;7067;51.832;8.296;2022-10-31T05:33:49;20.73;;;15.38;;
13985;SDS011;7067;51.832;8.296;2022-10-31T05:36:14;23.55;;;14.15;;
13985;SDS011;7067;51.832;8.296;2022-10-31T05:38:40;21.98;;;13.55;;
13985;SDS011;7067;51.832;8.296;2022-10-31T05:41:05;23.17;;;15.80;;
13985;SDS011;7067;51.832;8.296;2022-10-31T05:43:30;21.08;;;14.57;;
13985;SDS011;7067;51.832;8.296;2022-10-31T05:45:56;20.33;;;14.02;;
13985;SDS011;7067;51.832;8.296;2022-10-31T05:48:21;22.65;;;14.18;;
13985;SDS011;7067;51.832;8.296;2022-10-31T05:50:47;21.30;;;13.70;;
13985;SDS011;7067;51.832;8.296;2022-10-31T05:53:13;18.95;;;14.55;;
13985;SDS011;7067;51.832;8.296;2022-10-31T05:55:39;21.92;;;15.05;;
13985;SDS011;7067;51.832;8.296;2022-10-31T05:58:05;18.23;;;14.93;;
13985;SDS011;7067;51.832;8.296;2022-10-31T06:00:31;19.75;;;13.18;;
13985;SDS011;7067;51.832;8.296;2022-10-31T06:02:57;23.27;;;14.40;;
13985;SDS011;7067;51.832;8.296;2022-10-31T06:05:24;18.92;;;14.40;;
13985;SDS011;7067;51.832;8.296;2022-10-31T06:07:49;22.48;;;13.75;;
13985;SDS011;7067;51.832;8.296;2022-10-31T06:10:14;17.98;;;12.82;;
13985;SDS011;7067;51.832;8.296;2022-10-31T06:12:40;22.33;;;14.48;;
13985;SDS011;7067;51.832;8.296;2022-10-31T06:15:06;17.38;;;14.32;;
13985;SDS011;7067;51.832;8.296;2022-10-31T06:17:35;19.80;;;14.40;;
13985;SDS011;7067;51.832;8.296;2022-10-31T06:20:01;26.35;;;14.20;;
13985;SDS011;7067;51.832;8.296;2022-10-31T06:22:27;23.63;;;15.23;;
13985;SDS011;7067;51.832;8.296;2022-10-31T06:24:52;26.67;;;13.98;;
13985;SDS011;7067;51.832;8.296;2022-10-31T06:27:17;20.02;;;14.77;;
13985;SDS011;7067;51.832;8.296;2022-10-31T06:29:43;20.10;;;14.60;;
13985;SDS011;7067;51.832;8.296;2022-10-31T06:32:11;19.63;;;15.27;;
13985;SDS011;7067;51.832;8.296;2022-10-31T06:34:36;27.73;;;15.93;;
13985;SDS011;7067;51.832;8.296;2022-10-31T06:37:02;21.20;;;16.52;;
13985;SDS011;7067;51.832;8.296;2022-10-31T06:39:27;24.98;;;16.10;;
13985;SDS011;7067;51.832;8.296;2022-10-31T06:41:52;22.92;;;15.88;;
13985;SDS011;7067;51.832;8.296;2022-10-31T06:44:18;23.88;;;17.10;;
13985;SDS011;7067;51.832;8.296;2022-10-31T06:46:43;20.33;;;16.92;;
13985;SDS011;7067;51.832;8.296;2022-10-31T06:49:11;23.08;;;16.15;;
13985;SDS011;7067;51.832;8.296;2022-10-31T06:51:36;20.40;;;16.05;;
13985;SDS011;7067;51.832;8.296;2022-10-31T06:54:02;25.65;;;18.38;;
13985;SDS011;7067;51.832;8.296;2022-10-31T06:56:27;21.50;;;17.33;;
13985;SDS011;7067;51.832;8.296;2022-10-31T06:58:52;27.25;;;17.42;;
13985;SDS011;7067;51.832;8.296;2022-10-31T07:01:18;21.90;;;16.20;;
13985;SDS011;7067;51.832;8.296;2022-10-31T07:03:43;22.25;;;16.58;;
13985;SDS011;7067;51.832;8.296;2022-10-31T07:06:08;23.95;;;17.23;;
13985;SDS011;7067;51.832;8.296;2022-10-31T07:08:33;28.85;;;18.52;;
13985;SDS011;7067;51.832;8.296;2022-10-31T07:10:59;29.13;;;18.98;;
13985;SDS011;7067;51.832;8.296;2022-10-31T07:13:24;24.77;;;19.02;;
13985;SDS011;7067;51.832;8.296;2022-10-31T07:15:51;28.48;;;19.52;;
13985;SDS011;7067;51.832;8.296;2022-10-31T07:18:18;23.45;;;19.10;;
13985;SDS011;7067;51.832;8.296;2022-10-31T07:20:43;25.40;;;20.13;;
13985;SDS011;7067;51.832;8.296;2022-10-31T07:23:09;26.90;;;19.65;;
13985;SDS011;7067;51.832;8.296;2022-10-31T07:25:35;36.72;;;20.00;;
13985;SDS011;7067;51.832;8.296;2022-10-31T07:28:01;21.23;;;18.83;;
13985;SDS011;7067;51.832;8.296;2022-10-31T07:30:26;29.98;;;19.80;;
13985;SDS011;7067;51.832;8.296;2022-10-31T07:32:51;28.40;;;19.20;;
13985;SDS011;7067;51.832;8.296;2022-10-31T07:35:21;27.55;;;17.60;;
13985;SDS011;7067;51.832;8.296;2022-10-31T07:37:48;25.85;;;18.70;;
13985;SDS011;7067;51.832;8.296;2022-10-31T07:40:14;31.00;;;18.00;;
13985;SDS011;7067;51.832;8.296;2022-10-31T07:42:41;21.95;;;15.82;;
13985;SDS011;7067;51.832;8.296;2022-10-31T07:45:09;22.17;;;15.05;;
13985;SDS011;7067;51.832;8.296;2022-10-31T07:47:41;25.38;;;15.32;;
13985;SDS011;7067;51.832;8.296;2022-10-31T07:50:08;23.98;;;15.43;;
13985;SDS011;7067;51.832;8.296;2022-10-31T07:52:35;20.23;;;15.95;;
13985;SDS011;7067;51.832;8.296;2022-10-31T07:55:00;23.17;;;15.85;;
13985;SDS011;7067;51.832;8.296;2022-10-31T07:57:25;20.85;;;15.40;;
13985;SDS011;7067;51.832;8.296;2022-10-31T07:59:51;24.10;;;15.15;;
13985;SDS011;7067;51.832;8.296;2022-10-31T08:02:16;21.98;;;16.42;;
13985;SDS011;7067;51.832;8.296;2022-10-31T08:04:41;32.40;;;15.60;;
13985;SDS011;7067;51.832;8.296;2022-10-31T08:07:07;17.80;;;14.40;;
13985;SDS011;7067;51.832;8.296;2022-10-31T08:09:32;25.77;;;15.15;;
13985;SDS011;7067;51.832;8.296;2022-10-31T08:11:57;24.92;;;15.68;;
13985;SDS011;7067;51.832;8.296;2022-10-31T08:14:23;25.42;;;15.90;;
13985;SDS011;7067;51.832;8.296;2022-10-31T08:16:48;23.33;;;15.85;;
13985;SDS011;7067;51.832;8.296;2022-10-31T08:19:13;27.27;;;16.27;;
13985;SDS011;7067;51.832;8.296;2022-10-31T08:21:39;24.40;;;16.08;;
13985;SDS011;7067;51.832;8.296;2022-10-31T08:24:04;28.80;;;16.23;;
13985;SDS011;7067;51.832;8.296;2022-10-31T08:26:30;22.73;;;14.98;;
13985;SDS011;7067;51.832;8.296;2022-10-31T08:28:55;23.65;;;16.40;;
13985;SDS011;7067;51.832;8.296;2022-10-31T08:31:21;24.70;;;16.17;;
13985;SDS011;7067;51.832;8.296;2022-10-31T08:33:47;22.52;;;15.48;;
13985;SDS011;7067;51.832;8.296;2022-10-31T08:36:13;26.73;;;17.50;;
13985;SDS011;7067;51.832;8.296;2022-10-31T08:38:38;30.48;;;16.00;;
13985;SDS011;7067;51.832;8.296;2022-10-31T08:41:04;32.28;;;16.17;;
13985;SDS011;7067;51.832;8.296;2022-10-31T08:43:29;22.10;;;16.02;;
13985;SDS011;7067;51.832;8.296;2022-10-31T08:45:54;25.00;;;16.00;;
13985;SDS011;7067;51.832;8.296;2022-10-31T08:48:20;25.02;;;15.98;;
13985;SDS011;7067;51.832;8.296;2022-10-31T08:50:45;19.50;;;14.55;;
13985;SDS011;7067;51.832;8.296;2022-10-31T08:53:12;26.67;;;17.20;;
13985;SDS011;7067;51.832;8.296;2022-10-31T08:55:42;24.15;;;17.65;;
13985;SDS011;7067;51.832;8.296;2022-10-31T08:58:15;28.83;;;17.98;;
13985;SDS011;7067;51.832;8.296;2022-10-31T09:00:42;23.70;;;16.45;;
13985;SDS011;7067;51.832;8.296;2022-10-31T09:03:11;30.10;;;17.10;;
13985;SDS011;7067;51.832;8.296;2022-10-31T09:05:38;26.55;;;17.77;;
13985;SDS011;7067;51.832;8.296;2022-10-31T09:08:05;27.60;;;17.25;;
13985;SDS011;7067;51.832;8.296;2022-10-31T09:10:31;27.70;;;16.70;;
13985;SDS011;7067;51.832;8.296;2022-10-31T09:12:58;26.10;;;17.42;;
13985;SDS011;7067;51.832;8.296;2022-10-31T09:15:31;27.42;;;17.92;;
13985;SDS011;7067;51.832;8.296;2022-10-31T09:17:57;24.05;;;16.83;;
13985;SDS011;7067;51.832;8.296;2022-10-31T09:20:23;25.67;;;17.17;;
13985;SDS011;7067;51.832;8.296;2022-10-31T09:22:54;32.55;;;20.33;;
13985;SDS011;7067;51.832;8.296;2022-10-31T09:25:23;26.75;;;17.52;;
13985;SDS011;7067;51.832;8.296;2022-10-31T09:27:49;35.63;;;20.45;;
13985;SDS011;7067;51.832;8.296;2022-10-31T09:30:14;31.10;;;20.17;;
13985;SDS011;7067;51.832;8.296;2022-10-31T09:32:39;36.97;;;21.33;;
13985;SDS011;7067;51.832;8.296;2022-10-31T09:35:05;30.92;;;20.88;;
13985;SDS011;7067;51.832;8.296;2022-10-31T09:37:31;29.92;;;20.75;;
13985;SDS011;7067;51.832;8.296;2022-10-31T09:39:56;36.33;;;21.80;;
13985;SDS011;7067;51.832;8.296;2022-10-31T09:53:33;40.63;;;22.87;;
13985;SDS011;7067;51.832;8.296;2022-10-31T09:56:04;39.65;;;22.70;;
13985;SDS011;7067;51.832;8.296;2022-10-31T09:58:31;37.00;;;24.52;;
13985;SDS011;7067;51.832;8.296;2022-10-31T10:00:59;36.92;;;22.70;;
13985;SDS011;7067;51.832;8.296;2022-10-31T10:03:33;41.13;;;24.33;;
13985;SDS011;7067;51.832;8.296;2022-10-31T10:08:35;37.42;;;23.25;;
13985;SDS011;7067;51.832;8.296;2022-10-31T10:19:21;42.72;;;25.67;;
13985;SDS011;7067;51.832;8.296;2022-10-31T10:21:51;37.35;;;25.58;;
13985;SDS011;7067;51.832;8.296;2022-10-31T10:29:42;44.20;;;26.95;;
13985;SDS011;7067;51.832;8.296;2022-10-31T10:32:14;46.67;;;25.88;;
13985;SDS011;7067;51.832;8.296;2022-10-31T10:34:49;43.03;;;26.15;;
13985;SDS011;7067;51.832;8.296;2022-10-31T10:37:28;45.65;;;26.27;;
13985;SDS011;7067;51.832;8.296;2022-10-31T10:39:59;40.63;;;26.75;;
13985;SDS011;7067;51.832;8.296;2022-10-31T10:42:53;44.17;;;26.95;;
13985;SDS011;7067;51.832;8.296;2022-10-31T10:45:41;48.05;;;27.13;;
13985;SDS011;7067;51.832;8.296;2022-10-31T10:51:10;46.28;;;26.98;;
13985;SDS011;7067;51.832;8.296;2022-10-31T10:59:03;55.25;;;29.20;;
13985;SDS011;7067;51.832;8.296;2022-10-31T11:01:29;43.67;;;28.20;;
13985;SDS011;7067;51.832;8.296;2022-10-31T11:03:54;49.33;;;28.95;;
13985;SDS011;7067;51.832;8.296;2022-10-31T11:06:22;44.60;;;26.85;;
13985;SDS011;7067;51.832;8.296;2022-10-31T11:08:50;42.85;;;28.45;;
13985;SDS011;7067;51.832;8.296;2022-10-31T11:13:42;47.67;;;29.77;;
13985;SDS011;7067;51.832;8.296;2022-10-31T11:16:10;45.75;;;27.98;;
13985;SDS011;7067;51.832;8.296;2022-10-31T11:18:44;48.83;;;28.17;;
13985;SDS011;7067;51.832;8.296;2022-10-31T11:21:21;56.90;;;30.00;;
13985;SDS011;7067;51.832;8.296;2022-10-31T11:23:49;45.85;;;28.83;;
13985;SDS011;7067;51.832;8.296;2022-10-31T11:26:20;50.20;;;30.30;;
13985;SDS011;7067;51.832;8.296;2022-10-31T11:28:55;47.22;;;31.23;;
13985;SDS011;7067;51.832;8.296;2022-10-31T11:31:22;49.85;;;28.30;;
13985;SDS011;7067;51.832;8.296;2022-10-31T11:33:49;42.58;;;28.63;;
13985;SDS011;7067;51.832;8.296;2022-10-31T11:36:16;47.95;;;29.60;;
13985;SDS011;7067;51.832;8.296;2022-10-31T11:41:11;49.80;;;29.70;;
13985;SDS011;7067;51.832;8.296;2022-10-31T11:43:39;43.53;;;28.23;;
13985;SDS011;7067;51.832;8.296;2022-10-31T11:46:10;47.92;;;28.48;;
13985;SDS011;7067;51.832;8.296;2022-10-31T11:48:36;54.33;;;30.30;;
13985;SDS011;7067;51.832;8.296;2022-10-31T11:51:02;44.53;;;30.73;;
13985;SDS011;7067;51.832;8.296;2022-10-31T11:53:30;48.50;;;30.73;;
13985;SDS011;7067;51.832;8.296;2022-10-31T11:56:10;54.55;;;31.90;;
13985;SDS011;7067;51.832;8.296;2022-10-31T11:58:38;43.67;;;28.95;;
13985;SDS011;7067;51.832;8.296;2022-10-31T12:01:03;47.08;;;30.63;;
13985;SDS011;7067;51.832;8.296;2022-10-31T12:03:42;48.67;;;29.58;;
13985;SDS011;7067;51.832;8.296;2022-10-31T12:06:19;57.47;;;30.02;;
13985;SDS011;7067;51.832;8.296;2022-10-31T12:08:48;46.28;;;30.27;;
13985;SDS011;7067;51.832;8.296;2022-10-31T12:16:49;46.30;;;29.88;;
13985;SDS011;7067;51.832;8.296;2022-10-31T12:31:12;39.40;;;28.60;;
13985;SDS011;7067;51.832;8.296;2022-10-31T12:42:11;43.42;;;25.42;;
13985;SDS011;7067;51.832;8.296;2022-10-31T12:47:15;45.65;;;25.95;;
13985;SDS011;7067;51.832;8.296;2022-10-31T12:50:28;36.13;;;25.10;;
13985;SDS011;7067;51.832;8.296;2022-10-31T13:01:30;40.70;;;24.75;;
13985;SDS011;7067;51.832;8.296;2022-10-31T13:09:32;36.92;;;23.77;;
13985;SDS011;7067;51.832;8.296;2022-10-31T13:12:02;40.00;;;23.40;;
13985;SDS011;7067;51.832;8.296;2022-10-31T13:14:37;29.65;;;20.02;;
13985;SDS011;7067;51.832;8.296;2022-10-31T13:19:48;28.83;;;19.47;;
13985;SDS011;7067;51.832;8.296;2022-10-31T13:22:25;32.63;;;19.35;;
13985;SDS011;7067;51.832;8.296;2022-10-31T13:27:27;22.80;;;16.02;;
13985;SDS011;7067;51.832;8.296;2022-10-31T13:30:01;21.23;;;17.25;;
13985;SDS011;7067;51.832;8.296;2022-10-31T13:32:30;24.33;;;17.17;;
13985;SDS011;7067;51.832;8.296;2022-10-31T13:35:08;20.38;;;15.65;;
13985;SDS011;7067;51.832;8.296;2022-10-31T13:37:50;25.23;;;15.88;;
13985;SDS011;7067;51.832;8.296;2022-10-31T13:46:23;49.50;;;20.65;;
13985;SDS011;7067;51.832;8.296;2022-10-31T13:51:23;52.22;;;25.67;;
13985;SDS011;7067;51.832;8.296;2022-10-31T13:56:49;56.53;;;23.33;;
13985;SDS011;7067;51.832;8.296;2022-10-31T14:01:35;15.52;;;13.73;;
13985;SDS011;7067;51.832;8.296;2022-10-31T14:04:06;24.02;;;14.65;;
13985;SDS011;7067;51.832;8.296;2022-10-31T14:06:38;21.55;;;14.45;;
13985;SDS011;7067;51.832;8.296;2022-10-31T14:09:05;21.67;;;14.77;;
13985;SDS011;7067;51.832;8.296;2022-10-31T14:11:42;24.50;;;14.48;;
13985;SDS011;7067;51.832;8.296;2022-10-31T14:14:11;23.13;;;14.18;;
13985;SDS011;7067;51.832;8.296;2022-10-31T14:16:37;18.85;;;14.25;;
13985;SDS011;7067;51.832;8.296;2022-10-31T14:19:06;23.58;;;13.85;;
13985;SDS011;7067;51.832;8.296;2022-10-31T14:21:46;19.95;;;13.75;;
13985;SDS011;7067;51.832;8.296;2022-10-31T14:24:15;26.23;;;15.43;;
13985;SDS011;7067;51.832;8.296;2022-10-31T14:26:54;23.00;;;15.43;;
13985;SDS011;7067;51.832;8.296;2022-10-31T14:29:21;19.88;;;15.45;;
13985;SDS011;7067;51.832;8.296;2022-10-31T14:34:31;25.60;;;15.52;;
13985;SDS011;7067;51.832;8.296;2022-10-31T14:45:55;28.15;;;16.35;;
13985;SDS011;7067;51.832;8.296;2022-10-31T14:49:12;27.08;;;16.90;;
13985;SDS011;7067;51.832;8.296;2022-10-31T14:51:14;30.33;;;16.45;;
13985;SDS011;7067;51.832;8.296;2022-10-31T14:53:51;28.77;;;16.38;;
13985;SDS011;7067;51.832;8.296;2022-10-31T14:56:28;28.90;;;16.83;;
13985;SDS011;7067;51.832;8.296;2022-10-31T14:58:56;25.67;;;15.55;;
13985;SDS011;7067;51.832;8.296;2022-10-31T15:01:34;29.75;;;17.33;;
13985;SDS011;7067;51.832;8.296;2022-10-31T15:06:39;26.35;;;16.17;;
13985;SDS011;7067;51.832;8.296;2022-10-31T15:09:20;27.95;;;17.48;;
13985;SDS011;7067;51.832;8.296;2022-10-31T15:11:57;28.93;;;19.03;;
13985;SDS011;7067;51.832;8.296;2022-10-31T15:14:25;27.60;;;18.25;;
13985;SDS011;7067;51.832;8.296;2022-10-31T15:16:51;25.25;;;18.20;;
13985;SDS011;7067;51.832;8.296;2022-10-31T15:19:20;27.92;;;17.90;;
13985;SDS011;7067;51.832;8.296;2022-10-31T15:21:50;24.63;;;17.33;;
13985;SDS011;7067;51.832;8.296;2022-10-31T15:24:17;26.80;;;16.33;;
13985;SDS011;7067;51.832;8.296;2022-10-31T15:26:49;30.60;;;17.00;;
13985;SDS011;7067;51.832;8.296;2022-10-31T15:29:23;24.02;;;16.75;;
13985;SDS011;7067;51.832;8.296;2022-10-31T15:31:53;34.17;;;17.45;;
13985;SDS011;7067;51.832;8.296;2022-10-31T15:36:47;25.40;;;15.93;;
13985;SDS011;7067;51.832;8.296;2022-10-31T15:39:14;28.88;;;18.58;;
13985;SDS011;7067;51.832;8.296;2022-10-31T15:41:53;24.55;;;16.98;;
13985;SDS011;7067;51.832;8.296;2022-10-31T15:44:36;23.92;;;16.63;;
13985;SDS011;7067;51.832;8.296;2022-10-31T15:47:03;29.98;;;17.20;;
13985;SDS011;7067;51.832;8.296;2022-10-31T15:49:37;26.67;;;18.63;;
13985;SDS011;7067;51.832;8.296;2022-10-31T15:52:07;28.88;;;17.30;;
13985;SDS011;7067;51.832;8.296;2022-10-31T15:54:40;23.90;;;16.92;;
13985;SDS011;7067;51.832;8.296;2022-10-31T15:57:10;20.23;;;16.40;;
13985;SDS011;7067;51.832;8.296;2022-10-31T15:59:36;25.63;;;16.73;;
13985;SDS011;7067;51.832;8.296;2022-10-31T16:02:02;26.20;;;17.90;;
13985;SDS011;7067;51.832;8.296;2022-10-31T16:04:32;23.92;;;16.63;;
13985;SDS011;7067;51.832;8.296;2022-10-31T16:06:59;28.17;;;17.10;;
13985;SDS011;7067;51.832;8.296;2022-10-31T16:09:26;23.40;;;15.85;;
13985;SDS011;7067;51.832;8.296;2022-10-31T16:11:51;29.65;;;19.13;;
13985;SDS011;7067;51.832;8.296;2022-10-31T16:14:18;30.33;;;22.00;;
13985;SDS011;7067;51.832;8.296;2022-10-31T16:16:48;31.73;;;20.75;;
13985;SDS011;7067;51.832;8.296;2022-10-31T16:19:24;36.47;;;22.23;;
13985;SDS011;7067;51.832;8.296;2022-10-31T16:21:52;36.10;;;22.58;;
13985;SDS011;7067;51.832;8.296;2022-10-31T16:26:52;30.90;;;21.45;;
13985;SDS011;7067;51.832;8.296;2022-10-31T16:29:28;34.05;;;21.15;;
13985;SDS011;7067;51.832;8.296;2022-10-31T16:31:58;28.38;;;19.30;;
13985;SDS011;7067;51.832;8.296;2022-10-31T16:34:24;34.83;;;20.63;;
13985;SDS011;7067;51.832;8.296;2022-10-31T16:36:49;37.42;;;20.08;;
13985;SDS011;7067;51.832;8.296;2022-10-31T16:39:15;29.27;;;18.48;;
13985;SDS011;7067;51.832;8.296;2022-10-31T16:41:42;26.30;;;18.08;;
13985;SDS011;7067;51.832;8.296;2022-10-31T16:44:14;31.65;;;17.67;;
13985;SDS011;7067;51.832;8.296;2022-10-31T16:46:42;46.28;;;20.30;;
13985;SDS011;7067;51.832;8.296;2022-10-31T16:49:08;24.70;;;18.08;;
13985;SDS011;7067;51.832;8.296;2022-10-31T16:51:34;30.48;;;17.85;;
13985;SDS011;7067;51.832;8.296;2022-10-31T16:54:00;29.77;;;18.50;;
13985;SDS011;7067;51.832;8.296;2022-10-31T16:56:29;30.30;;;19.48;;
13985;SDS011;7067;51.832;8.296;2022-10-31T16:58:57;31.33;;;19.52;;
13985;SDS011;7067;51.832;8.296;2022-10-31T17:01:23;565.70;;;110.75;;
13985;SDS011;7067;51.832;8.296;2022-10-31T17:03:48;157.02;;;29.08;;
13985;SDS011;7067;51.832;8.296;2022-10-31T17:06:14;84.95;;;24.08;;
13985;SDS011;7067;51.832;8.296;2022-10-31T17:08:39;619.67;;;571.60;;
13985;SDS011;7067;51.832;8.296;2022-10-31T17:11:05;603.95;;;557.00;;
13985;SDS011;7067;51.832;8.296;2022-10-31T17:13:31;544.38;;;502.63;;
13985;SDS011;7067;51.832;8.296;2022-10-31T17:15:58;649.20;;;598.80;;
13985;SDS011;7067;51.832;8.296;2022-10-31T17:18:25;255.32;;;71.00;;
13985;SDS011;7067;51.832;8.296;2022-10-31T17:20:54;30.40;;;25.50;;